sensor_id;sensor_type;location;lat;lon;timestamp;pressure;altitude;pressure_sealevel;temperature;humidity
12594;BME280;6362;50.208;9.182;2023-03-03T00:00:44;100217.56;;;0.71;67.51
12594;BME280;6362;50.208;9.182;2023-03-03T00:03:11;100223.22;;;0.63;67.66
12594;BME280;6362;50.208;9.182;2023-03-03T00:05:39;100222.94;;;0.55;67.63
12594;BME280;6362;50.208;9.182;2023-03-03T00:08:05;100232.03;;;0.47;68.15
12594;BME280;6362;50.208;9.182;2023-03-03T00:10:30;100235.25;;;0.43;68.09
12594;BME280;6362;50.208;9.182;2023-03-03T00:12:56;100236.59;;;0.33;68.47
12594;BME280;6362;50.208;9.182;2023-03-03T00:15:23;100248.50;;;0.33;69.03
12594;BME280;6362;50.208;9.182;2023-03-03T00:17:50;100246.59;;;0.27;69.85
12594;BME280;6362;50.208;9.182;2023-03-03T00:23:13;100245.44;;;0.19;70.42
12594;BME280;6362;50.208;9.182;2023-03-03T00:25:45;100244.53;;;0.17;71.47
12594;BME280;6362;50.208;9.182;2023-03-03T00:30:42;100245.84;;;0.07;70.64
12594;BME280;6362;50.208;9.182;2023-03-03T00:33:45;100256.00;;;0.06;70.87
12594;BME280;6362;50.208;9.182;2023-03-03T00:38:40;100254.13;;;0.02;71.75
12594;BME280;6362;50.208;9.182;2023-03-03T00:41:26;100253.31;;;0.03;71.84
12594;BME280;6362;50.208;9.182;2023-03-03T00:43:52;100257.56;;;0.02;72.58
12594;BME280;6362;50.208;9.182;2023-03-03T00:46:21;100258.56;;;0.06;72.89
12594;BME280;6362;50.208;9.182;2023-03-03T00:48:47;100255.00;;;0.02;72.33
12594;BME280;6362;50.208;9.182;2023-03-03T00:51:27;100259.97;;;-0.01;72.16
12594;BME280;6362;50.208;9.182;2023-03-03T00:53:57;100256.25;;;-0.09;72.55
12594;BME280;6362;50.208;9.182;2023-03-03T00:56:26;100251.84;;;-0.13;72.76
12594;BME280;6362;50.208;9.182;2023-03-03T00:58:52;100257.63;;;-0.17;73.10
12594;BME280;6362;50.208;9.182;2023-03-03T01:01:18;100248.84;;;-0.24;73.58
12594;BME280;6362;50.208;9.182;2023-03-03T01:03:44;100249.47;;;-0.30;73.38
12594;BME280;6362;50.208;9.182;2023-03-03T01:06:10;100256.88;;;-0.36;72.94
12594;BME280;6362;50.208;9.182;2023-03-03T01:08:38;100255.56;;;-0.47;73.78
12594;BME280;6362;50.208;9.182;2023-03-03T01:11:25;100257.91;;;-0.51;73.94
12594;BME280;6362;50.208;9.182;2023-03-03T01:13:52;100254.50;;;-0.52;74.34
12594;BME280;6362;50.208;9.182;2023-03-03T01:16:18;100259.53;;;-0.54;74.52
12594;BME280;6362;50.208;9.182;2023-03-03T01:18:44;100258.53;;;-0.57;74.33
12594;BME280;6362;50.208;9.182;2023-03-03T01:21:10;100250.88;;;-0.57;74.79
12594;BME280;6362;50.208;9.182;2023-03-03T01:23:36;100249.13;;;-0.58;74.77
12594;BME280;6362;50.208;9.182;2023-03-03T01:26:03;100248.06;;;-0.63;74.54
12594;BME280;6362;50.208;9.182;2023-03-03T01:28:29;100241.47;;;-0.58;74.70
12594;BME280;6362;50.208;9.182;2023-03-03T01:31:02;100243.00;;;-0.62;74.75
12594;BME280;6362;50.208;9.182;2023-03-03T01:33:28;100244.59;;;-0.65;74.86
12594;BME280;6362;50.208;9.182;2023-03-03T01:35:54;100246.19;;;-0.67;75.19
12594;BME280;6362;50.208;9.182;2023-03-03T01:38:19;100247.94;;;-0.66;75.49
12594;BME280;6362;50.208;9.182;2023-03-03T01:40:55;100250.31;;;-0.71;75.51
12594;BME280;6362;50.208;9.182;2023-03-03T01:43:21;100250.31;;;-0.71;75.67
12594;BME280;6362;50.208;9.182;2023-03-03T01:51:30;100240.00;;;-0.72;75.73
12594;BME280;6362;50.208;9.182;2023-03-03T01:54:06;100235.84;;;-0.70;75.93
12594;BME280;6362;50.208;9.182;2023-03-03T01:56:35;100240.97;;;-0.70;75.75
12594;BME280;6362;50.208;9.182;2023-03-03T01:59:28;100243.16;;;-0.78;75.46
12594;BME280;6362;50.208;9.182;2023-03-03T02:01:56;100242.75;;;-0.89;76.13
12594;BME280;6362;50.208;9.182;2023-03-03T02:04:21;100244.81;;;-0.99;76.17
12594;BME280;6362;50.208;9.182;2023-03-03T02:06:53;100244.72;;;-1.01;75.75
12594;BME280;6362;50.208;9.182;2023-03-03T02:09:34;100239.50;;;-1.04;76.19
12594;BME280;6362;50.208;9.182;2023-03-03T02:12:06;100242.53;;;-1.13;76.22
12594;BME280;6362;50.208;9.182;2023-03-03T02:14:33;100240.50;;;-1.20;76.89
12594;BME280;6362;50.208;9.182;2023-03-03T02:16:59;100234.66;;;-1.17;76.95
12594;BME280;6362;50.208;9.182;2023-03-03T02:20:09;100244.47;;;-1.26;77.55
12594;BME280;6362;50.208;9.182;2023-03-03T02:22:52;100242.13;;;-1.22;77.97
12594;BME280;6362;50.208;9.182;2023-03-03T02:28:27;100235.53;;;-1.36;78.65
12594;BME280;6362;50.208;9.182;2023-03-03T02:30:55;100239.75;;;-1.37;78.28
12594;BME280;6362;50.208;9.182;2023-03-03T02:33:21;100238.09;;;-1.36;78.41
12594;BME280;6362;50.208;9.182;2023-03-03T02:35:46;100232.91;;;-1.38;78.35
12594;BME280;6362;50.208;9.182;2023-03-03T02:43:50;100240.03;;;-1.30;76.75
12594;BME280;6362;50.208;9.182;2023-03-03T02:46:18;100247.41;;;-1.37;76.77
12594;BME280;6362;50.208;9.182;2023-03-03T02:48:44;100248.06;;;-1.41;76.89
12594;BME280;6362;50.208;9.182;2023-03-03T02:51:09;100249.69;;;-1.43;76.72
12594;BME280;6362;50.208;9.182;2023-03-03T02:53:34;100245.72;;;-1.55;76.80
12594;BME280;6362;50.208;9.182;2023-03-03T02:56:00;100253.16;;;-1.60;76.90
12594;BME280;6362;50.208;9.182;2023-03-03T02:58:26;100249.41;;;-1.67;77.12
12594;BME280;6362;50.208;9.182;2023-03-03T03:00:51;100246.97;;;-1.65;77.49
12594;BME280;6362;50.208;9.182;2023-03-03T03:03:17;100252.88;;;-1.66;77.56
12594;BME280;6362;50.208;9.182;2023-03-03T03:05:42;100255.28;;;-1.69;77.84
12594;BME280;6362;50.208;9.182;2023-03-03T03:08:08;100245.06;;;-1.69;78.31
12594;BME280;6362;50.208;9.182;2023-03-03T03:10:34;100248.97;;;-1.77;78.27
12594;BME280;6362;50.208;9.182;2023-03-03T03:13:00;100249.88;;;-1.75;78.90
12594;BME280;6362;50.208;9.182;2023-03-03T03:15:26;100239.97;;;-1.69;78.43
12594;BME280;6362;50.208;9.182;2023-03-03T03:17:51;100252.50;;;-1.74;78.40
12594;BME280;6362;50.208;9.182;2023-03-03T03:20:16;100247.28;;;-1.77;78.70
12594;BME280;6362;50.208;9.182;2023-03-03T03:22:42;100248.88;;;-1.79;78.88
12594;BME280;6362;50.208;9.182;2023-03-03T03:25:08;100252.97;;;-1.82;78.80
12594;BME280;6362;50.208;9.182;2023-03-03T03:27:33;100257.78;;;-1.89;78.71
12594;BME280;6362;50.208;9.182;2023-03-03T03:29:58;100258.66;;;-1.88;78.96
12594;BME280;6362;50.208;9.182;2023-03-03T03:32:24;100256.81;;;-1.91;79.68
12594;BME280;6362;50.208;9.182;2023-03-03T03:34:49;100259.28;;;-1.92;79.93
12594;BME280;6362;50.208;9.182;2023-03-03T03:37:15;100263.66;;;-1.90;80.14
12594;BME280;6362;50.208;9.182;2023-03-03T03:39:40;100268.63;;;-1.93;79.96
12594;BME280;6362;50.208;9.182;2023-03-03T03:42:06;100262.66;;;-1.93;80.19
12594;BME280;6362;50.208;9.182;2023-03-03T03:44:32;100261.63;;;-1.97;80.39
12594;BME280;6362;50.208;9.182;2023-03-03T03:46:57;100269.44;;;-1.94;80.61
12594;BME280;6362;50.208;9.182;2023-03-03T03:49:22;100277.84;;;-1.95;80.48
12594;BME280;6362;50.208;9.182;2023-03-03T03:51:48;100275.41;;;-1.93;80.89
12594;BME280;6362;50.208;9.182;2023-03-03T03:54:13;100270.28;;;-1.93;81.30
12594;BME280;6362;50.208;9.182;2023-03-03T03:56:39;100276.25;;;-1.93;81.05
12594;BME280;6362;50.208;9.182;2023-03-03T03:59:06;100278.16;;;-1.89;81.24
12594;BME280;6362;50.208;9.182;2023-03-03T04:01:31;100274.13;;;-1.83;81.66
12594;BME280;6362;50.208;9.182;2023-03-03T04:03:57;100276.41;;;-1.72;83.00
12594;BME280;6362;50.208;9.182;2023-03-03T04:06:22;100284.34;;;-1.66;82.76
12594;BME280;6362;50.208;9.182;2023-03-03T04:08:48;100284.19;;;-1.69;82.75
12594;BME280;6362;50.208;9.182;2023-03-03T04:11:13;100280.13;;;-1.65;83.13
12594;BME280;6362;50.208;9.182;2023-03-03T04:13:39;100282.72;;;-1.64;83.37
12594;BME280;6362;50.208;9.182;2023-03-03T04:16:05;100281.22;;;-1.60;82.83
12594;BME280;6362;50.208;9.182;2023-03-03T04:18:30;100277.91;;;-1.57;82.65
12594;BME280;6362;50.208;9.182;2023-03-03T04:20:55;100277.97;;;-1.56;82.32
12594;BME280;6362;50.208;9.182;2023-03-03T04:23:21;100274.78;;;-1.52;82.75
12594;BME280;6362;50.208;9.182;2023-03-03T04:25:47;100276.19;;;-1.39;82.45
12594;BME280;6362;50.208;9.182;2023-03-03T04:28:13;100274.00;;;-1.31;82.33
12594;BME280;6362;50.208;9.182;2023-03-03T04:30:39;100270.50;;;-1.34;82.56
12594;BME280;6362;50.208;9.182;2023-03-03T04:33:05;100274.50;;;-1.21;83.22
12594;BME280;6362;50.208;9.182;2023-03-03T04:35:31;100263.09;;;-1.10;82.94
12594;BME280;6362;50.208;9.182;2023-03-03T04:37:56;100261.03;;;-1.17;83.82
12594;BME280;6362;50.208;9.182;2023-03-03T04:40:22;100258.38;;;-1.20;83.24
12594;BME280;6362;50.208;9.182;2023-03-03T04:42:48;100259.03;;;-1.24;83.30
12594;BME280;6362;50.208;9.182;2023-03-03T04:45:13;100266.56;;;-1.27;83.65
12594;BME280;6362;50.208;9.182;2023-03-03T04:47:39;100275.31;;;-1.22;83.70
12594;BME280;6362;50.208;9.182;2023-03-03T04:50:05;100266.25;;;-1.15;84.23
12594;BME280;6362;50.208;9.182;2023-03-03T04:52:31;100263.28;;;-1.05;83.82
12594;BME280;6362;50.208;9.182;2023-03-03T04:54:57;100274.66;;;-0.98;84.07
12594;BME280;6362;50.208;9.182;2023-03-03T04:57:22;100272.91;;;-0.99;83.88
12594;BME280;6362;50.208;9.182;2023-03-03T04:59:48;100276.44;;;-0.96;84.28
12594;BME280;6362;50.208;9.182;2023-03-03T05:02:13;100282.44;;;-0.76;83.91
12594;BME280;6362;50.208;9.182;2023-03-03T05:04:39;100283.03;;;-0.82;83.56
12594;BME280;6362;50.208;9.182;2023-03-03T05:07:04;100278.66;;;-0.84;84.11
12594;BME280;6362;50.208;9.182;2023-03-03T05:09:30;100274.25;;;-0.88;83.60
12594;BME280;6362;50.208;9.182;2023-03-03T05:11:55;100281.81;;;-0.90;84.02
12594;BME280;6362;50.208;9.182;2023-03-03T05:14:23;100280.94;;;-0.90;83.99
12594;BME280;6362;50.208;9.182;2023-03-03T05:16:48;100285.53;;;-0.83;83.36
12594;BME280;6362;50.208;9.182;2023-03-03T05:19:14;100283.59;;;-0.89;83.72
12594;BME280;6362;50.208;9.182;2023-03-03T05:21:39;100281.91;;;-0.88;84.39
12594;BME280;6362;50.208;9.182;2023-03-03T05:24:09;100284.03;;;-0.78;84.25
12594;BME280;6362;50.208;9.182;2023-03-03T05:26:34;100276.31;;;-0.39;83.27
12594;BME280;6362;50.208;9.182;2023-03-03T05:29:00;100276.59;;;-0.33;81.90
12594;BME280;6362;50.208;9.182;2023-03-03T05:31:25;100291.03;;;-0.34;81.93
12594;BME280;6362;50.208;9.182;2023-03-03T05:33:52;100273.69;;;-0.41;81.81
12594;BME280;6362;50.208;9.182;2023-03-03T05:36:18;100282.75;;;-0.49;82.81
12594;BME280;6362;50.208;9.182;2023-03-03T05:38:43;100276.06;;;-0.45;83.04
12594;BME280;6362;50.208;9.182;2023-03-03T05:41:09;100282.59;;;-0.52;82.51
12594;BME280;6362;50.208;9.182;2023-03-03T05:43:34;100284.94;;;-0.57;82.46
12594;BME280;6362;50.208;9.182;2023-03-03T05:46:00;100273.44;;;-0.47;82.74
12594;BME280;6362;50.208;9.182;2023-03-03T05:48:26;100274.69;;;-0.58;82.52
12594;BME280;6362;50.208;9.182;2023-03-03T05:50:52;100286.84;;;0.76;89.79
12594;BME280;6362;50.208;9.182;2023-03-03T05:53:17;100288.94;;;0.41;87.44
12594;BME280;6362;50.208;9.182;2023-03-03T05:55:43;100284.19;;;0.50;84.66
12594;BME280;6362;50.208;9.182;2023-03-03T05:58:08;100280.22;;;1.53;85.74
12594;BME280;6362;50.208;9.182;2023-03-03T06:00:34;100288.56;;;1.47;81.58
12594;BME280;6362;50.208;9.182;2023-03-03T06:02:59;100289.34;;;1.45;80.77
12594;BME280;6362;50.208;9.182;2023-03-03T06:05:25;100302.75;;;1.14;77.95
12594;BME280;6362;50.208;9.182;2023-03-03T06:07:51;100308.97;;;0.74;77.69
12594;BME280;6362;50.208;9.182;2023-03-03T06:10:16;100315.44;;;0.43;78.48
12594;BME280;6362;50.208;9.182;2023-03-03T06:12:41;100311.41;;;0.28;78.77
12594;BME280;6362;50.208;9.182;2023-03-03T06:15:08;100307.31;;;0.10;79.62
12594;BME280;6362;50.208;9.182;2023-03-03T06:17:34;100304.84;;;0.12;80.15
12594;BME280;6362;50.208;9.182;2023-03-03T06:20:00;100314.00;;;0.07;80.20
12594;BME280;6362;50.208;9.182;2023-03-03T06:22:26;100325.13;;;-0.12;80.80
12594;BME280;6362;50.208;9.182;2023-03-03T06:24:51;100331.75;;;-0.17;80.81
12594;BME280;6362;50.208;9.182;2023-03-03T06:27:17;100334.50;;;-0.13;81.14
12594;BME280;6362;50.208;9.182;2023-03-03T06:29:43;100347.72;;;-0.02;80.83
12594;BME280;6362;50.208;9.182;2023-03-03T06:32:09;100349.34;;;-0.04;80.89
12594;BME280;6362;50.208;9.182;2023-03-03T06:34:35;100346.41;;;-0.13;81.10
12594;BME280;6362;50.208;9.182;2023-03-03T06:37:01;100353.19;;;-0.14;81.55
12594;BME280;6362;50.208;9.182;2023-03-03T06:39:26;100355.81;;;-0.12;81.35
12594;BME280;6362;50.208;9.182;2023-03-03T06:41:52;100358.63;;;-0.06;81.34
12594;BME280;6362;50.208;9.182;2023-03-03T06:44:17;100360.25;;;-0.08;81.10
12594;BME280;6362;50.208;9.182;2023-03-03T06:46:43;100363.75;;;-0.06;81.46
12594;BME280;6362;50.208;9.182;2023-03-03T06:49:08;100368.31;;;0.01;81.03
12594;BME280;6362;50.208;9.182;2023-03-03T06:51:36;100371.06;;;0.06;81.12
12594;BME280;6362;50.208;9.182;2023-03-03T06:54:19;100365.34;;;0.11;80.80
12594;BME280;6362;50.208;9.182;2023-03-03T06:56:46;100371.56;;;0.18;80.79
12594;BME280;6362;50.208;9.182;2023-03-03T06:59:18;100381.84;;;0.19;79.99
12594;BME280;6362;50.208;9.182;2023-03-03T07:01:46;100383.16;;;0.31;79.84
12594;BME280;6362;50.208;9.182;2023-03-03T07:06:40;100381.66;;;0.36;79.91
12594;BME280;6362;50.208;9.182;2023-03-03T07:09:16;100379.16;;;0.37;79.65
12594;BME280;6362;50.208;9.182;2023-03-03T07:11:44;100393.44;;;0.53;78.73
12594;BME280;6362;50.208;9.182;2023-03-03T07:14:15;100395.19;;;0.54;78.90
12594;BME280;6362;50.208;9.182;2023-03-03T07:16:41;100404.75;;;0.58;78.77
12594;BME280;6362;50.208;9.182;2023-03-03T07:19:29;100399.78;;;0.61;78.73
12594;BME280;6362;50.208;9.182;2023-03-03T07:21:56;100396.63;;;0.68;78.49
12594;BME280;6362;50.208;9.182;2023-03-03T07:24:29;100396.75;;;0.94;76.92
12594;BME280;6362;50.208;9.182;2023-03-03T07:27:09;100396.94;;;0.98;77.08
12594;BME280;6362;50.208;9.182;2023-03-03T07:29:36;100402.22;;;1.03;76.52
12594;BME280;6362;50.208;9.182;2023-03-03T07:37:53;100428.03;;;1.08;75.87
12594;BME280;6362;50.208;9.182;2023-03-03T07:40:42;100430.03;;;1.16;75.60
12594;BME280;6362;50.208;9.182;2023-03-03T07:43:32;100435.81;;;1.11;75.14
12594;BME280;6362;50.208;9.182;2023-03-03T07:49:19;100432.16;;;1.04;75.01
12594;BME280;6362;50.208;9.182;2023-03-03T07:51:46;100443.63;;;1.14;75.48
12594;BME280;6362;50.208;9.182;2023-03-03T07:54:26;100440.38;;;1.18;75.23
12594;BME280;6362;50.208;9.182;2023-03-03T07:59:36;100441.00;;;1.35;74.95
12594;BME280;6362;50.208;9.182;2023-03-03T08:02:05;100441.28;;;1.42;74.54
12594;BME280;6362;50.208;9.182;2023-03-03T08:04:41;100434.19;;;1.35;74.18
12594;BME280;6362;50.208;9.182;2023-03-03T08:07:24;100444.13;;;1.50;73.45
12594;BME280;6362;50.208;9.182;2023-03-03T08:12:39;100441.09;;;1.60;73.13
12594;BME280;6362;50.208;9.182;2023-03-03T08:17:44;100440.28;;;1.85;72.76
12594;BME280;6362;50.208;9.182;2023-03-03T08:20:43;100444.44;;;1.81;72.44
12594;BME280;6362;50.208;9.182;2023-03-03T08:23:12;100450.06;;;1.95;72.08
12594;BME280;6362;50.208;9.182;2023-03-03T08:25:38;100454.41;;;1.98;71.76
12594;BME280;6362;50.208;9.182;2023-03-03T08:28:05;100441.09;;;2.08;71.65
12594;BME280;6362;50.208;9.182;2023-03-03T08:30:31;100439.88;;;2.22;71.16
12594;BME280;6362;50.208;9.182;2023-03-03T08:32:56;100445.22;;;2.28;70.89
12594;BME280;6362;50.208;9.182;2023-03-03T08:35:22;100443.47;;;2.53;69.95
12594;BME280;6362;50.208;9.182;2023-03-03T08:37:47;100444.44;;;2.56;69.16
12594;BME280;6362;50.208;9.182;2023-03-03T08:40:13;100448.03;;;2.88;68.36
12594;BME280;6362;50.208;9.182;2023-03-03T08:42:39;100445.69;;;2.95;67.64
12594;BME280;6362;50.208;9.182;2023-03-03T08:45:05;100453.22;;;3.17;67.66
12594;BME280;6362;50.208;9.182;2023-03-03T08:47:30;100440.78;;;3.31;67.32
12594;BME280;6362;50.208;9.182;2023-03-03T08:49:57;100444.88;;;3.54;65.71
12594;BME280;6362;50.208;9.182;2023-03-03T08:52:22;100450.19;;;3.60;65.42
12594;BME280;6362;50.208;9.182;2023-03-03T08:54:48;100444.09;;;3.87;64.90
12594;BME280;6362;50.208;9.182;2023-03-03T08:57:13;100452.84;;;3.93;64.71
12594;BME280;6362;50.208;9.182;2023-03-03T08:59:40;100462.81;;;4.13;64.33
12594;BME280;6362;50.208;9.182;2023-03-03T09:02:06;100459.41;;;4.14;63.84
12594;BME280;6362;50.208;9.182;2023-03-03T09:04:31;100456.09;;;4.18;63.04
12594;BME280;6362;50.208;9.182;2023-03-03T09:06:57;100444.59;;;4.38;62.39
12594;BME280;6362;50.208;9.182;2023-03-03T09:09:23;100441.00;;;4.66;62.56
12594;BME280;6362;50.208;9.182;2023-03-03T09:11:49;100452.09;;;4.98;61.45
12594;BME280;6362;50.208;9.182;2023-03-03T09:14:17;100450.38;;;5.37;60.19
12594;BME280;6362;50.208;9.182;2023-03-03T09:16:51;100448.63;;;5.34;59.12
12594;BME280;6362;50.208;9.182;2023-03-03T09:19:28;100453.28;;;5.50;59.07
12594;BME280;6362;50.208;9.182;2023-03-03T09:21:57;100451.59;;;5.54;58.58
12594;BME280;6362;50.208;9.182;2023-03-03T09:24:29;100452.78;;;5.68;57.52
12594;BME280;6362;50.208;9.182;2023-03-03T09:26:57;100452.44;;;5.94;56.94
12594;BME280;6362;50.208;9.182;2023-03-03T09:29:30;100462.19;;;6.08;56.79
12594;BME280;6362;50.208;9.182;2023-03-03T09:31:59;100458.00;;;6.15;56.96
12594;BME280;6362;50.208;9.182;2023-03-03T09:39:39;100449.91;;;6.42;56.04
12594;BME280;6362;50.208;9.182;2023-03-03T09:48:12;100450.25;;;7.17;53.12
12594;BME280;6362;50.208;9.182;2023-03-03T09:50:46;100451.53;;;7.48;53.13
12594;BME280;6362;50.208;9.182;2023-03-03T10:01:44;100471.75;;;8.52;50.71
12594;BME280;6362;50.208;9.182;2023-03-03T10:07:31;100469.34;;;8.73;49.71
12594;BME280;6362;50.208;9.182;2023-03-03T10:21:35;100481.13;;;9.46;48.20
12594;BME280;6362;50.208;9.182;2023-03-03T10:24:30;100483.94;;;9.98;46.81
12594;BME280;6362;50.208;9.182;2023-03-03T10:37:34;100480.63;;;11.32;44.03
12594;BME280;6362;50.208;9.182;2023-03-03T10:40:40;100480.66;;;11.40;43.78
12594;BME280;6362;50.208;9.182;2023-03-03T10:43:08;100478.03;;;11.50;43.07
12594;BME280;6362;50.208;9.182;2023-03-03T10:51:36;100476.19;;;11.81;42.05
12594;BME280;6362;50.208;9.182;2023-03-03T11:08:44;100469.81;;;12.40;39.76
12594;BME280;6362;50.208;9.182;2023-03-03T11:11:14;100467.00;;;12.69;39.57
12594;BME280;6362;50.208;9.182;2023-03-03T11:13:50;100466.81;;;12.94;38.29
12594;BME280;6362;50.208;9.182;2023-03-03T11:30:30;100445.25;;;13.60;36.93
12594;BME280;6362;50.208;9.182;2023-03-03T11:33:19;100448.63;;;13.71;36.65
12594;BME280;6362;50.208;9.182;2023-03-03T11:41:31;100452.81;;;13.84;36.39
12594;BME280;6362;50.208;9.182;2023-03-03T11:44:28;100444.72;;;14.06;35.75
12594;BME280;6362;50.208;9.182;2023-03-03T11:50:03;100444.22;;;14.39;35.72
12594;BME280;6362;50.208;9.182;2023-03-03T11:57:45;100427.81;;;15.33;34.03
12594;BME280;6362;50.208;9.182;2023-03-03T12:00:23;100424.06;;;15.46;32.79
12594;BME280;6362;50.208;9.182;2023-03-03T12:11:19;100408.63;;;15.31;33.26
12594;BME280;6362;50.208;9.182;2023-03-03T12:19:54;100383.34;;;16.12;31.77
12594;BME280;6362;50.208;9.182;2023-03-03T12:22:51;100386.41;;;16.31;30.97
12594;BME280;6362;50.208;9.182;2023-03-03T12:25:42;100383.06;;;16.24;30.30
12594;BME280;6362;50.208;9.182;2023-03-03T12:36:49;100375.66;;;16.42;30.35
12594;BME280;6362;50.208;9.182;2023-03-03T12:48:08;100377.03;;;16.92;28.32
12594;BME280;6362;50.208;9.182;2023-03-03T12:50:49;100378.44;;;17.05;27.92
12594;BME280;6362;50.208;9.182;2023-03-03T13:01:10;100365.72;;;17.52;26.35
12594;BME280;6362;50.208;9.182;2023-03-03T13:07:00;100354.31;;;18.37;26.08
12594;BME280;6362;50.208;9.182;2023-03-03T13:18:05;100334.09;;;18.91;24.86
12594;BME280;6362;50.208;9.182;2023-03-03T13:20:50;100340.38;;;18.87;24.04
12594;BME280;6362;50.208;9.182;2023-03-03T13:25:49;100335.25;;;19.32;24.98
12594;BME280;6362;50.208;9.182;2023-03-03T13:28:27;100338.41;;;19.65;24.92
12594;BME280;6362;50.208;9.182;2023-03-03T13:31:23;100334.72;;;19.22;24.33
12594;BME280;6362;50.208;9.182;2023-03-03T13:33:57;100332.69;;;19.52;24.42
12594;BME280;6362;50.208;9.182;2023-03-03T13:36:27;100324.09;;;19.24;24.25
12594;BME280;6362;50.208;9.182;2023-03-03T13:39:20;100327.50;;;19.51;24.67
12594;BME280;6362;50.208;9.182;2023-03-03T13:44:41;100317.69;;;20.42;23.04
12594;BME280;6362;50.208;9.182;2023-03-03T13:50:12;100322.97;;;20.00;24.36
12594;BME280;6362;50.208;9.182;2023-03-03T13:55:41;100328.53;;;20.99;22.80
12594;BME280;6362;50.208;9.182;2023-03-03T14:02:01;100312.88;;;21.13;22.67
12594;BME280;6362;50.208;9.182;2023-03-03T14:06:52;100313.13;;;20.88;23.38
12594;BME280;6362;50.208;9.182;2023-03-03T14:14:49;100305.94;;;19.40;25.11
12594;BME280;6362;50.208;9.182;2023-03-03T14:17:31;100311.56;;;19.77;24.61
12594;BME280;6362;50.208;9.182;2023-03-03T14:23:03;100310.19;;;20.11;24.13
12594;BME280;6362;50.208;9.182;2023-03-03T14:28:24;100299.75;;;19.41;25.75
12594;BME280;6362;50.208;9.182;2023-03-03T14:30:54;100300.31;;;19.25;25.64
12594;BME280;6362;50.208;9.182;2023-03-03T14:33:29;100301.38;;;19.21;25.53
12594;BME280;6362;50.208;9.182;2023-03-03T14:41:15;100294.47;;;20.71;23.66
12594;BME280;6362;50.208;9.182;2023-03-03T14:43:43;100294.09;;;20.60;23.58
12594;BME280;6362;50.208;9.182;2023-03-03T14:48:53;100292.88;;;20.87;23.37
12594;BME280;6362;50.208;9.182;2023-03-03T14:51:39;100289.78;;;19.71;24.70
12594;BME280;6362;50.208;9.182;2023-03-03T14:54:10;100296.31;;;20.06;24.34
12594;BME280;6362;50.208;9.182;2023-03-03T14:56:55;100298.66;;;20.76;23.73
12594;BME280;6362;50.208;9.182;2023-03-03T14:59:23;100297.34;;;20.24;24.30
12594;BME280;6362;50.208;9.182;2023-03-03T15:04:37;100291.38;;;20.81;23.39
12594;BME280;6362;50.208;9.182;2023-03-03T15:09:50;100290.34;;;20.23;25.52
12594;BME280;6362;50.208;9.182;2023-03-03T15:12:26;100287.13;;;19.49;25.34
12594;BME280;6362;50.208;9.182;2023-03-03T15:15:17;100289.78;;;19.49;24.09
12594;BME280;6362;50.208;9.182;2023-03-03T15:20:28;100284.66;;;17.65;26.14
12594;BME280;6362;50.208;9.182;2023-03-03T15:26:12;100287.47;;;15.58;28.84
12594;BME280;6362;50.208;9.182;2023-03-03T15:42:51;100291.81;;;12.12;34.62
12594;BME280;6362;50.208;9.182;2023-03-03T15:45:20;100286.06;;;11.61;35.59
12594;BME280;6362;50.208;9.182;2023-03-03T15:53:11;100290.81;;;10.03;39.70
12594;BME280;6362;50.208;9.182;2023-03-03T16:03:44;100299.31;;;9.26;41.80
12594;BME280;6362;50.208;9.182;2023-03-03T16:22:40;100317.56;;;8.10;45.02
12594;BME280;6362;50.208;9.182;2023-03-03T16:25:30;100318.34;;;7.97;45.33
12594;BME280;6362;50.208;9.182;2023-03-03T16:28:08;100319.94;;;7.83;45.58
12594;BME280;6362;50.208;9.182;2023-03-03T16:36:53;100328.16;;;7.45;46.90
12594;BME280;6362;50.208;9.182;2023-03-03T16:39:55;100335.47;;;7.08;47.66
12594;BME280;6362;50.208;9.182;2023-03-03T16:42:29;100331.84;;;6.96;47.87
12594;BME280;6362;50.208;9.182;2023-03-03T16:45:17;100338.59;;;6.84;47.65
12594;BME280;6362;50.208;9.182;2023-03-03T16:58:38;100354.97;;;6.29;50.67
12594;BME280;6362;50.208;9.182;2023-03-03T17:01:35;100356.50;;;6.18;50.84
12594;BME280;6362;50.208;9.182;2023-03-03T17:13:19;100365.81;;;5.64;51.92
12594;BME280;6362;50.208;9.182;2023-03-03T17:16:04;100375.03;;;5.51;51.96
12594;BME280;6362;50.208;9.182;2023-03-03T17:18:12;100377.19;;;5.32;53.03
12594;BME280;6362;50.208;9.182;2023-03-03T17:20:48;100374.38;;;5.21;53.20
12594;BME280;6362;50.208;9.182;2023-03-03T17:23:34;100378.28;;;5.02;53.66
12594;BME280;6362;50.208;9.182;2023-03-03T17:32:03;100390.88;;;4.52;56.92
12594;BME280;6362;50.208;9.182;2023-03-03T17:46:46;100425.94;;;3.82;59.01
12594;BME280;6362;50.208;9.182;2023-03-03T18:00:28;100426.75;;;3.21;61.36
12594;BME280;6362;50.208;9.182;2023-03-03T18:08:51;100438.00;;;2.96;62.77
12594;BME280;6362;50.208;9.182;2023-03-03T18:22:33;100445.59;;;2.39;64.49
12594;BME280;6362;50.208;9.182;2023-03-03T18:25:21;100448.81;;;2.33;64.21
12594;BME280;6362;50.208;9.182;2023-03-03T18:30:27;100457.59;;;2.16;65.25
12594;BME280;6362;50.208;9.182;2023-03-03T18:32:58;100465.19;;;2.11;65.38
12594;BME280;6362;50.208;9.182;2023-03-03T18:38:22;100465.28;;;1.91;66.42
12594;BME280;6362;50.208;9.182;2023-03-03T18:48:48;100470.69;;;1.74;66.76
12594;BME280;6362;50.208;9.182;2023-03-03T19:04:51;100484.34;;;1.51;67.67
12594;BME280;6362;50.208;9.182;2023-03-03T19:07:29;100490.84;;;1.43;68.25
12594;BME280;6362;50.208;9.182;2023-03-03T19:10:03;100491.53;;;1.39;68.38
12594;BME280;6362;50.208;9.182;2023-03-03T19:13:01;100486.72;;;1.24;69.16
12594;BME280;6362;50.208;9.182;2023-03-03T19:20:22;100489.69;;;1.12;70.30
12594;BME280;6362;50.208;9.182;2023-03-03T19:23:00;100496.13;;;1.02;69.65
12594;BME280;6362;50.208;9.182;2023-03-03T19:25:27;100495.94;;;0.98;70.49
12594;BME280;6362;50.208;9.182;2023-03-03T19:31:01;100491.00;;;1.02;70.23
12594;BME280;6362;50.208;9.182;2023-03-03T19:36:53;100494.63;;;1.08;69.98
12594;BME280;6362;50.208;9.182;2023-03-03T19:45:08;100487.09;;;0.90;70.19
12594;BME280;6362;50.208;9.182;2023-03-03T19:47:47;100485.00;;;0.81;70.56
12594;BME280;6362;50.208;9.182;2023-03-03T19:50:51;100493.63;;;0.62;72.02
12594;BME280;6362;50.208;9.182;2023-03-03T20:01:06;100502.00;;;0.58;72.36
12594;BME280;6362;50.208;9.182;2023-03-03T20:09:23;100507.78;;;0.54;72.59
12594;BME280;6362;50.208;9.182;2023-03-03T20:14:47;100511.06;;;0.31;72.49